Time;durP1;ratioP1;P1;durP2;ratioP2;P2;SDS_P1;SDS_P2;PMS_P1;PMS_P2;Temp;Humidity;BMP_temperature;BMP_pressure;BME280_temperature;BME280_humidity;BME280_pressure;Samples;Min_cycle;Max_cycle;Signal;HPM_P1;HPM_P2
2022/06/15 00:02:07;;;;;;;2.80;2.60;;;19.00;54.80;;;;;;5097142;28;20475;-74
2022/06/15 00:04:36;;;;;;;5.43;3.10;;;18.90;55.00;;;;;;5097202;28;20454;-73
2022/06/15 00:07:03;;;;;;;2.17;2.00;;;18.90;55.30;;;;;;5096819;28;20934;-73
2022/06/15 00:09:29;;;;;;;3.23;2.33;;;18.80;55.40;;;;;;5097002;28;20479;-74
2022/06/15 00:11:56;;;;;;;3.90;2.77;;;18.80;55.60;;;;;;5096984;28;20475;-73
2022/06/15 00:14:26;;;;;;;4.80;3.43;;;18.70;55.60;;;;;;5097014;28;20443;-73
2022/06/15 00:16:53;;;;;;;4.23;2.80;;;18.60;55.80;;;;;;5097037;28;20446;-73
2022/06/15 00:19:20;;;;;;;2.60;2.40;;;18.60;56.20;;;;;;5096650;28;20952;-73
2022/06/15 00:21:49;;;;;;;2.93;2.67;;;18.50;56.20;;;;;;5096902;28;20471;-73
2022/06/15 00:24:15;;;;;;;4.17;3.03;;;18.50;56.50;;;;;;5097272;28;20455;-73
2022/06/15 00:26:42;;;;;;;3.27;2.97;;;18.40;56.50;;;;;;5097071;28;20447;-73
2022/06/15 00:29:10;;;;;;;4.73;2.83;;;18.40;56.70;;;;;;5097097;28;20448;-73
2022/06/15 00:31:37;;;;;;;4.40;3.10;;;18.40;56.90;;;;;;5096724;28;20463;-73
2022/06/15 00:34:04;;;;;;;7.27;3.60;;;18.40;56.90;;;;;;5096407;28;20463;-73
2022/06/15 00:36:31;;;;;;;3.20;2.67;;;18.40;57.00;;;;;;5096679;28;20447;-74
2022/06/15 00:39:00;;;;;;;4.23;2.83;;;18.30;57.20;;;;;;5096297;28;20945;-74
2022/06/15 00:41:30;;;;;;;4.40;2.43;;;18.30;57.30;;;;;;5096818;28;20471;-74
2022/06/15 00:43:59;;;;;;;6.90;2.93;;;18.30;57.50;;;;;;5096478;28;20440;-73
2022/06/15 00:46:31;;;;;;;3.53;2.90;;;18.30;57.60;;;;;;5096389;28;20451;-73
2022/06/15 00:49:02;;;;;;;3.10;2.80;;;18.30;57.80;;;;;;5096240;28;20905;-73
2022/06/15 00:51:30;;;;;;;6.67;2.77;;;18.30;58.00;;;;;;5096237;28;20504;-73
2022/06/15 00:53:59;;;;;;;2.90;2.60;;;18.20;58.10;;;;;;5096328;28;20450;-73
2022/06/15 00:56:29;;;;;;;3.10;2.90;;;18.20;58.10;;;;;;5096669;28;20469;-73
2022/06/15 00:59:00;;;;;;;4.80;3.03;;;18.10;58.40;;;;;;5096353;28;20527;-73
2022/06/15 01:01:27;;;;;;;2.87;2.50;;;18.00;58.40;;;;;;5096394;28;20834;-73
2022/06/15 01:03:56;;;;;;;2.43;2.30;;;17.90;58.50;;;;;;5096225;28;20963;-73
2022/06/15 01:06:34;;;;;;;2.87;2.50;;;17.90;58.60;;;;;;5096546;28;20447;-73
2022/06/15 01:09:08;;;;;;;3.57;2.70;;;17.80;58.70;;;;;;5096560;28;20432;-73
2022/06/15 01:11:49;;;;;;;3.93;2.57;;;17.80;59.00;;;;;;5097089;28;20456;-74
2022/06/15 01:14:45;;;;;;;4.40;2.70;;;17.80;59.10;;;;;;5096606;28;20440;-73
2022/06/15 01:17:23;;;;;;;5.37;2.83;;;17.80;59.30;;;;;;5096015;28;20456;-74
2022/06/15 01:20:06;;;;;;;2.90;2.67;;;17.70;59.30;;;;;;5095613;28;20893;-74
2022/06/15 01:23:00;;;;;;;3.37;2.80;;;17.60;59.40;;;;;;5095879;28;20459;-74
2022/06/15 01:25:37;;;;;;;3.40;3.00;;;17.50;59.70;;;;;;5095977;28;20440;-73
2022/06/15 01:28:41;;;;;;;3.70;2.20;;;17.50;60.00;;;;;;5095796;28;20432;-74
2022/06/15 01:31:21;;;;;;;3.30;2.30;;;17.40;60.20;;;;;;5013487;28;20481;-73
2022/06/15 01:34:01;;;;;;;3.20;2.40;;;17.30;60.50;;;;;;5013337;28;20477;-73
2022/06/15 01:36:37;;;;;;;2.50;2.30;;;17.30;60.60;;;;;;5066365;28;20443;-73
2022/06/15 01:39:10;;;;;;;2.90;2.53;;;17.30;60.80;;;;;;5095665;28;20427;-74
2022/06/15 01:41:44;;;;;;;3.27;2.70;;;17.20;60.80;;;;;;5095305;28;20989;-74
2022/06/15 01:44:15;;;;;;;4.50;2.73;;;17.20;61.10;;;;;;5095673;28;20793;-74
2022/06/15 01:46:45;;;;;;;3.53;2.70;;;17.20;61.60;;;;;;5095707;28;20439;-74
2022/06/15 01:49:21;;;;;;;2.87;2.57;;;17.10;61.50;;;;;;5095901;28;20443;-74
2022/06/15 01:51:50;;;;;;;5.20;3.07;;;17.10;61.50;;;;;;5095782;28;20513;-74
2022/06/15 01:54:22;;;;;;;3.87;2.50;;;17.10;61.70;;;;;;5096914;28;20801;-74
2022/06/15 01:56:51;;;;;;;6.20;3.10;;;17.20;62.00;;;;;;5097423;28;20842;-74
2022/06/15 01:59:21;;;;;;;4.83;2.70;;;17.10;62.00;;;;;;5097765;28;20949;-74
2022/06/15 02:01:57;;;;;;;4.20;2.73;;;17.10;62.20;;;;;;5096844;28;20499;-73
2022/06/15 02:04:38;;;;;;;3.40;2.47;;;17.10;62.50;;;;;;5095452;28;20788;-74
2022/06/15 02:07:15;;;;;;;4.03;3.33;;;17.00;62.40;;;;;;5095378;28;20473;-74
2022/06/15 02:09:48;;;;;;;3.57;2.90;;;17.00;62.80;;;;;;5094753;28;20831;-74
2022/06/15 02:12:21;;;;;;;3.30;2.93;;;17.00;62.80;;;;;;5094878;28;20468;-74
2022/06/15 02:14:52;;;;;;;2.93;2.60;;;16.90;62.90;;;;;;5094917;28;20795;-74
2022/06/15 02:17:26;;;;;;;4.00;3.00;;;16.90;63.20;;;;;;5094827;28;20436;-74
2022/06/15 02:19:58;;;;;;;7.13;3.07;;;16.70;63.40;;;;;;5094826;28;20424;-74
2022/06/15 02:22:29;;;;;;;7.83;3.20;;;16.70;63.90;;;;;;5094896;28;20464;-74
2022/06/15 02:24:59;;;;;;;3.00;2.70;;;16.60;64.20;;;;;;5095568;28;20424;-74
2022/06/15 02:27:29;;;;;;;2.63;2.43;;;16.60;64.40;;;;;;5095010;28;20436;-74
2022/06/15 02:30:00;;;;;;;5.20;3.00;;;16.60;64.60;;;;;;5094614;28;20984;-73
2022/06/15 02:32:29;;;;;;;7.70;2.57;;;16.50;64.50;;;;;;5094865;28;20468;-73
2022/06/15 02:34:55;;;;;;;5.23;3.00;;;16.50;64.80;;;;;;5094794;28;20957;-73
2022/06/15 02:37:22;;;;;;;4.93;2.87;;;16.40;64.70;;;;;;5094747;28;20443;-73
2022/06/15 02:39:49;;;;;;;5.03;3.10;;;16.50;64.90;;;;;;5094888;28;20814;-74
2022/06/15 02:42:25;;;;;;;3.70;3.07;;;16.50;64.80;;;;;;5094514;28;20476;-74
2022/06/15 02:44:55;;;;;;;5.87;2.97;;;16.50;64.90;;;;;;5094449;28;20464;-74
2022/06/15 02:47:26;;;;;;;3.80;2.83;;;16.50;65.00;;;;;;5094504;28;20447;-74
2022/06/15 02:49:55;;;;;;;4.00;2.90;;;16.50;64.90;;;;;;5094398;28;20432;-74
2022/06/15 02:52:26;;;;;;;4.70;2.77;;;16.50;64.90;;;;;;5094168;28;20969;-74
2022/06/15 02:54:55;;;;;;;5.90;3.40;;;16.50;65.10;;;;;;5094522;28;20431;-74
2022/06/15 02:57:23;;;;;;;4.60;2.80;;;16.50;66.10;;;;;;5094666;28;20452;-74
2022/06/15 02:59:50;;;;;;;4.00;3.60;;;16.50;65.40;;;;;;5094045;28;20451;-74
2022/06/15 03:02:19;;;;;;;3.27;2.93;;;16.40;65.60;;;;;;5094562;28;20463;-74
2022/06/15 03:04:47;;;;;;;4.27;3.20;;;16.40;65.80;;;;;;5094588;28;20455;-74
2022/06/15 03:07:16;;;;;;;3.27;2.97;;;16.30;65.80;;;;;;5094438;28;20447;-74
2022/06/15 03:09:43;;;;;;;2.90;2.70;;;16.20;66.00;;;;;;5094505;28;20478;-74
2022/06/15 03:12:11;;;;;;;4.70;2.93;;;16.20;66.30;;;;;;5094537;28;20459;-74
2022/06/15 03:14:38;;;;;;;5.03;2.60;;;16.10;66.50;;;;;;5094472;28;20452;-74
2022/06/15 03:17:05;;;;;;;2.87;2.60;;;16.10;66.80;;;;;;5094353;28;20440;-74
2022/06/15 03:19:32;;;;;;;4.30;2.83;;;16.10;66.80;;;;;;5095002;28;20454;-74
2022/06/15 03:21:59;;;;;;;6.27;3.47;;;16.00;67.00;;;;;;5094241;28;20816;-73
2022/06/15 03:24:27;;;;;;;3.90;3.60;;;16.00;67.40;;;;;;5094485;28;20455;-73
2022/06/15 03:26:54;;;;;;;4.90;3.47;;;15.90;67.40;;;;;;5093851;28;20454;-73
2022/06/15 03:29:21;;;;;;;5.83;3.17;;;15.90;67.50;;;;;;5094200;28;20529;-74
2022/06/15 03:31:47;;;;;;;3.50;3.07;;;15.90;68.00;;;;;;5093581;28;21015;-73
2022/06/15 03:34:14;;;;;;;3.20;2.57;;;15.80;67.70;;;;;;5094087;28;20481;-73
2022/06/15 03:36:41;;;;;;;5.43;3.20;;;15.80;67.90;;;;;;5093952;28;20945;-73
2022/06/15 03:39:09;;;;;;;4.70;3.27;;;15.70;68.20;;;;;;5093874;28;20826;-73
2022/06/15 03:41:37;;;;;;;5.80;2.70;;;15.70;69.00;;;;;;5093972;28;20459;-73
2022/06/15 03:44:04;;;;;;;5.13;3.30;;;15.70;68.20;;;;;;5093950;28;20474;-73
2022/06/15 03:46:31;;;;;;;4.00;3.17;;;15.70;68.50;;;;;;5093905;28;20828;-74
2022/06/15 03:48:58;;;;;;;3.70;2.90;;;15.70;68.80;;;;;;5093933;28;20945;-73
2022/06/15 03:51:24;;;;;;;5.53;2.93;;;15.70;69.20;;;;;;5094032;28;20845;-73
2022/06/15 03:53:51;;;;;;;3.40;3.10;;;15.60;69.20;;;;;;5093835;28;20815;-73
2022/06/15 03:56:18;;;;;;;6.60;3.50;;;15.60;69.40;;;;;;5093857;28;20440;-73
2022/06/15 03:58:46;;;;;;;3.93;3.50;;;15.60;69.70;;;;;;5093689;28;20454;-73
2022/06/15 04:01:13;;;;;;;4.70;3.13;;;15.70;70.00;;;;;;5093539;28;20450;-74
2022/06/15 04:03:40;;;;;;;3.37;2.77;;;15.70;70.40;;;;;;5093578;28;20451;-73
2022/06/15 04:06:07;;;;;;;5.80;3.00;;;15.60;70.20;;;;;;5093742;28;20447;-73
2022/06/15 04:08:35;;;;;;;4.67;2.90;;;15.60;70.60;;;;;;5093744;28;20832;-74
2022/06/15 04:11:04;;;;;;;4.00;2.87;;;15.60;71.00;;;;;;5093885;28;20572;-73
2022/06/15 04:13:30;;;;;;;3.80;3.23;;;15.60;71.20;;;;;;5093836;28;20471;-73
2022/06/15 04:15:58;;;;;;;3.90;3.50;;;15.60;71.50;;;;;;5094175;28;20447;-73
2022/06/15 04:18:25;;;;;;;3.10;2.80;;;15.60;71.80;;;;;;5094011;28;20440;-73
2022/06/15 04:20:52;;;;;;;6.10;3.50;;;15.60;72.00;;;;;;5093889;28;20446;-73
2022/06/15 04:23:21;;;;;;;4.90;2.90;;;15.60;72.20;;;;;;5098466;28;20475;-73
2022/06/15 04:25:51;;;;;;;4.57;3.07;;;15.70;72.50;;;;;;5098072;28;20929;-73
2022/06/15 04:28:21;;;;;;;6.53;3.20;;;15.70;72.40;;;;;;5099114;28;20937;-74
2022/06/15 04:30:48;;;;;;;5.67;4.10;;;15.60;72.70;;;;;;5099501;28;20475;-74
2022/06/15 04:33:17;;;;;;;7.50;3.33;;;15.60;73.40;;;;;;5100080;28;20472;-74
2022/06/15 04:35:44;;;;;;;4.73;4.00;;;15.60;73.90;;;;;;5100070;28;20466;-74
2022/06/15 04:38:11;;;;;;;8.60;3.60;;;15.70;74.50;;;;;;5098106;28;20459;-74
2022/06/15 04:40:39;;;;;;;8.10;3.83;;;15.70;74.80;;;;;;5098045;28;20444;-74
2022/06/15 04:43:07;;;;;;;13.97;4.43;;;15.70;75.00;;;;;;5096935;28;20468;-74
2022/06/15 04:45:35;;;;;;;10.10;4.00;;;15.80;75.20;;;;;;5096952;28;20804;-74
2022/06/15 04:48:02;;;;;;;13.10;3.80;;;15.80;75.50;;;;;;5096877;28;20866;-74
2022/06/15 04:50:30;;;;;;;9.60;4.07;;;15.90;75.60;;;;;;5097015;28;20447;-74
2022/06/15 04:52:57;;;;;;;7.30;3.30;;;15.90;75.80;;;;;;5096981;28;20463;-74
2022/06/15 04:55:25;;;;;;;6.50;4.13;;;16.00;77.10;;;;;;5096794;28;20543;-74
2022/06/15 04:57:54;;;;;;;4.70;3.87;;;16.10;76.90;;;;;;5097009;28;20459;-73
2022/06/15 05:00:24;;;;;;;11.27;3.60;;;16.20;77.50;;;;;;5096336;28;20448;-74
2022/06/15 05:02:51;;;;;;;3.30;3.00;;;16.20;78.10;;;;;;5096055;28;20474;-74
2022/06/15 05:05:18;;;;;;;9.50;4.70;;;16.30;78.40;;;;;;5096059;28;20436;-74
2022/06/15 05:07:47;;;;;;;7.87;4.13;;;16.40;78.50;;;;;;5096002;28;20455;-71
2022/06/15 05:10:18;;;;;;;8.73;4.43;;;16.40;78.80;;;;;;5095909;28;20440;-72
2022/06/15 05:12:45;;;;;;;6.47;3.93;;;16.50;79.40;;;;;;5095912;28;20459;-72
2022/06/15 05:15:13;;;;;;;6.13;4.40;;;16.60;79.90;;;;;;5095832;28;20568;-72
2022/06/15 05:17:40;;;;;;;4.67;4.20;;;16.60;79.90;;;;;;5095900;28;20478;-72
2022/06/15 05:20:08;;;;;;;5.23;4.17;;;16.70;80.40;;;;;;5095773;28;20448;-72
2022/06/15 05:22:36;;;;;;;5.90;4.33;;;16.80;81.20;;;;;;5095249;28;20976;-72
2022/06/15 05:25:06;;;;;;;8.27;4.50;;;16.90;81.50;;;;;;5095761;28;20447;-72
2022/06/15 05:27:33;;;;;;;13.20;4.77;;;17.00;81.50;;;;;;5095589;28;20446;-72
2022/06/15 05:30:00;;;;;;;7.10;4.63;;;17.10;81.50;;;;;;5095628;28;20443;-72
2022/06/15 05:32:27;;;;;;;5.97;4.20;;;17.20;80.80;;;;;;5095231;28;20487;-73
2022/06/15 05:34:55;;;;;;;6.10;4.90;;;17.20;81.20;;;;;;5094673;28;20464;-73
2022/06/15 05:37:22;;;;;;;10.60;4.87;;;17.30;80.90;;;;;;5095503;28;20455;-72
2022/06/15 05:39:49;;;;;;;6.77;4.70;;;17.30;80.60;;;;;;5095785;28;20448;-72
2022/06/15 05:42:17;;;;;;;8.13;4.43;;;17.40;80.60;;;;;;5095279;28;21055;-72
2022/06/15 05:44:51;;;;;;;7.10;4.63;;;17.50;80.80;;;;;;5095351;28;20452;-72
2022/06/15 05:47:17;;;;;;;10.30;4.90;;;17.50;79.10;;;;;;5095255;28;20436;-72
2022/06/15 05:49:44;;;;;;;5.40;4.60;;;17.60;79.80;;;;;;5095263;28;20444;-73
2022/06/15 05:52:11;;;;;;;7.80;5.03;;;17.70;80.30;;;;;;5095004;28;20495;-72
2022/06/15 05:54:38;;;;;;;5.53;5.00;;;17.70;80.50;;;;;;5095363;28;20526;-72
2022/06/15 05:57:12;;;;;;;8.63;4.73;;;17.80;80.20;;;;;;5095307;28;20427;-72
2022/06/15 05:59:40;;;;;;;7.00;5.17;;;17.90;79.70;;;;;;5094788;28;20432;-72
2022/06/15 06:02:06;;;;;;;10.47;5.53;;;18.00;79.50;;;;;;5094805;28;20467;-73
2022/06/15 06:04:33;;;;;;;11.40;5.00;;;18.10;79.40;;;;;;5094920;28;20436;-73
2022/06/15 06:07:00;;;;;;;5.97;4.87;;;18.30;79.40;;;;;;5094926;28;20477;-73
2022/06/15 06:09:28;;;;;;;9.90;4.60;;;18.40;79.00;;;;;;5094792;28;20466;-73
2022/06/15 06:11:55;;;;;;;8.83;4.77;;;18.50;78.30;;;;;;5094630;28;20492;-74
2022/06/15 06:14:22;;;;;;;10.13;5.23;;;18.60;78.10;;;;;;5094427;28;20509;-74
2022/06/15 06:16:50;;;;;;;5.20;4.63;;;18.80;78.50;;;;;;5094481;28;20889;-74
2022/06/15 06:19:16;;;;;;;9.23;5.00;;;18.90;78.40;;;;;;5094515;28;20454;-74
2022/06/15 06:21:43;;;;;;;6.67;4.10;;;19.00;77.50;;;;;;5094159;28;20834;-74
2022/06/15 06:24:10;;;;;;;8.60;4.67;;;19.20;77.10;;;;;;5094572;28;20443;-74
2022/06/15 06:26:37;;;;;;;8.20;4.80;;;19.30;76.20;;;;;;5094142;28;20928;-74
2022/06/15 06:29:06;;;;;;;6.40;4.43;;;19.40;75.60;;;;;;5094420;28;20443;-72
2022/06/15 06:31:33;;;;;;;5.47;4.97;;;19.60;74.90;;;;;;5094249;28;20479;-71
2022/06/15 06:34:01;;;;;;;9.33;4.97;;;19.70;73.40;;;;;;5094074;28;20466;-73
2022/06/15 06:36:30;;;;;;;11.93;3.80;;;19.90;72.90;;;;;;5094170;28;20795;-72
2022/06/15 06:38:58;;;;;;;6.30;3.77;;;20.00;73.30;;;;;;5093998;28;20444;-72
2022/06/15 06:41:26;;;;;;;4.77;3.60;;;20.20;71.70;;;;;;5094323;28;20430;-74
2022/06/15 06:43:54;;;;;;;4.83;3.73;;;20.40;70.50;;;;;;5094065;28;20455;-72
2022/06/15 06:46:21;;;;;;;6.67;4.07;;;20.60;69.60;;;;;;5094272;28;20440;-73
2022/06/15 06:48:48;;;;;;;10.33;4.30;;;20.80;69.90;;;;;;5094105;28;20451;-72
2022/06/15 06:51:16;;;;;;;6.90;4.60;;;20.90;69.30;;;;;;5094040;28;20479;-71
2022/06/15 06:53:43;;;;;;;7.60;3.50;;;21.20;68.20;;;;;;5093900;28;20450;-72
2022/06/15 06:56:11;;;;;;;6.30;4.43;;;21.30;68.10;;;;;;5094046;28;20451;-73
2022/06/15 06:58:38;;;;;;;11.77;4.30;;;21.50;67.30;;;;;;5093765;28;20448;-72
2022/06/15 07:01:05;;;;;;;5.87;3.20;;;21.70;66.60;;;;;;5094041;28;20459;-73
2022/06/15 07:03:33;;;;;;;4.87;3.30;;;21.90;65.20;;;;;;5095020;28;20481;-72
2022/06/15 07:06:00;;;;;;;7.33;4.57;;;22.00;64.90;;;;;;5094144;28;20428;-73
2022/06/15 07:08:29;;;;;;;9.13;4.50;;;22.20;64.90;;;;;;5094730;28;20454;-73
2022/06/15 07:10:56;;;;;;;5.40;4.20;;;22.40;64.00;;;;;;5096434;28;20450;-73
2022/06/15 07:13:23;;;;;;;8.40;3.87;;;22.50;62.70;;;;;;5097996;28;20467;-72
2022/06/15 07:15:50;;;;;;;7.30;4.57;;;22.70;61.10;;;;;;5097242;28;20447;-73
2022/06/15 07:18:17;;;;;;;4.17;3.77;;;22.90;61.20;;;;;;5094006;28;20428;-73
2022/06/15 07:20:44;;;;;;;8.17;3.80;;;23.00;61.60;;;;;;5093748;28;20459;-73
2022/06/15 07:23:11;;;;;;;6.60;3.60;;;23.20;60.40;;;;;;5093667;28;20464;-74
2022/06/15 07:25:39;;;;;;;5.20;3.83;;;23.40;59.80;;;;;;5093738;28;20462;-73
2022/06/15 07:28:06;;;;;;;9.33;4.30;;;23.60;59.70;;;;;;5093665;28;20541;-73
2022/06/15 07:30:33;;;;;;;7.40;4.10;;;23.80;59.80;;;;;;5093688;28;20448;-73
2022/06/15 07:33:00;;;;;;;10.60;4.13;;;24.00;58.80;;;;;;5093646;28;20491;-73
2022/06/15 07:35:30;;;;;;;7.60;4.00;;;24.20;58.30;;;;;;5093186;28;20462;-73
2022/06/15 07:37:57;;;;;;;5.30;3.97;;;24.40;57.60;;;;;;5093626;28;20438;-72
2022/06/15 07:40:25;;;;;;;8.00;4.10;;;24.60;57.40;;;;;;5093323;28;20937;-72
2022/06/15 07:42:55;;;;;;;6.93;4.10;;;24.80;56.30;;;;;;5093181;28;20968;-71
2022/06/15 07:45:24;;;;;;;6.20;3.50;;;25.00;55.50;;;;;;5093592;28;20769;-72
2022/06/15 07:50:36;;;;;;;5.27;3.60;;;25.40;53.90;;;;;;5093383;28;20900;-71
2022/06/15 07:53:06;;;;;;;3.33;3.03;;;25.70;53.50;;;;;;5093461;28;20491;-72
2022/06/15 07:55:35;;;;;;;4.80;2.80;;;25.90;53.40;;;;;;5093747;28;20428;-73
2022/06/15 07:58:04;;;;;;;6.10;3.13;;;26.10;52.60;;;;;;5096981;28;20946;-72
2022/06/15 08:00:32;;;;;;;10.00;4.00;;;26.30;51.60;;;;;;5098182;28;20428;-72
2022/06/15 08:03:00;;;;;;;4.17;2.80;;;26.50;51.10;;;;;;5097859;28;20459;-73
2022/06/15 08:05:29;;;;;;;4.13;2.80;;;26.70;50.70;;;;;;5098091;28;20481;-73
2022/06/15 08:07:57;;;;;;;6.87;2.97;;;26.90;49.90;;;;;;5097669;28;20447;-73
2022/06/15 08:10:26;;;;;;;4.90;2.70;;;27.10;49.50;;;;;;5097590;28;20443;-73
2022/06/15 08:12:53;;;;;;;5.13;2.90;;;27.30;50.10;;;;;;5097934;28;20499;-73
2022/06/15 08:15:22;;;;;;;4.70;3.07;;;27.50;48.90;;;;;;5097614;28;20432;-73
2022/06/15 08:17:52;;;;;;;4.60;3.53;;;27.70;48.20;;;;;;5097024;28;20450;-73
2022/06/15 08:20:23;;;;;;;7.33;3.27;;;27.80;47.20;;;;;;5097466;28;20448;-73
2022/06/15 08:22:54;;;;;;;5.73;2.50;;;27.90;46.60;;;;;;5096882;28;20546;-73
2022/06/15 08:25:25;;;;;;;3.20;2.27;;;28.00;45.80;;;;;;5096951;28;20426;-73
2022/06/15 08:27:53;;;;;;;3.27;2.23;;;28.10;46.00;;;;;;5096975;28;20432;-72
2022/06/15 08:30:22;;;;;;;7.33;3.07;;;28.20;45.40;;;;;;5096476;28;20542;-72
2022/06/15 08:32:49;;;;;;;5.30;2.70;;;28.40;45.00;;;;;;5096650;28;20492;-72
2022/06/15 08:35:17;;;;;;;6.40;2.70;;;28.50;44.40;;;;;;5096610;28;20463;-72
2022/06/15 08:37:43;;;;;;;4.67;2.33;;;28.70;43.80;;;;;;5096497;28;20439;-72
2022/06/15 08:40:11;;;;;;;3.40;2.57;;;28.90;43.60;;;;;;5096615;28;20448;-72
2022/06/15 08:42:47;;;;;;;8.80;2.67;;;29.00;44.10;;;;;;5096453;28;20520;-72
2022/06/15 08:45:22;;;;;;;5.87;2.80;;;29.20;43.20;;;;;;5096596;28;20446;-73
2022/06/15 08:48:06;;;;;;;4.57;2.63;;;29.40;43.10;;;;;;5097284;28;20439;-74
2022/06/15 08:50:36;;;;;;;3.20;2.17;;;29.50;43.20;;;;;;5096491;28;20424;-73
2022/06/15 08:53:11;;;;;;;4.33;2.27;;;29.80;43.10;;;;;;5096234;28;20487;-73
2022/06/15 08:55:44;;;;;;;4.60;2.47;;;29.90;43.60;;;;;;5096394;28;20428;-73
2022/06/15 08:58:21;;;;;;;2.77;2.00;;;30.10;42.60;;;;;;5096291;28;20439;-73
2022/06/15 09:00:49;;;;;;;4.63;1.97;;;30.30;42.00;;;;;;5096173;28;20435;-73
2022/06/15 09:03:31;;;;;;;4.67;2.80;;;30.50;41.10;;;;;;5096174;28;20472;-73
2022/06/15 09:06:13;;;;;;;5.07;2.50;;;30.70;40.70;;;;;;5096105;28;20428;-73
2022/06/15 09:08:58;;;;;;;3.27;2.07;;;30.90;39.50;;;;;;5095866;28;20436;-73
2022/06/15 09:11:38;;;;;;;4.60;2.30;;;31.00;38.70;;;;;;5095991;28;20431;-73
2022/06/15 09:14:18;;;;;;;2.53;2.03;;;31.10;38.90;;;;;;5095877;28;20467;-74
2022/06/15 09:16:53;;;;;;;8.57;2.40;;;31.40;38.70;;;;;;5096413;28;20426;-74
2022/06/15 09:19:27;;;;;;;4.70;2.33;;;31.60;38.00;;;;;;5095675;28;20431;-73
2022/06/15 09:22:01;;;;;;;3.53;2.70;;;31.70;37.70;;;;;;5095577;28;21033;-74
2022/06/15 09:24:36;;;;;;;2.80;2.20;;;31.90;36.90;;;;;;5095830;28;20423;-74
2022/06/15 09:27:09;;;;;;;3.60;2.53;;;32.10;36.00;;;;;;5095914;28;20446;-74
2022/06/15 09:29:41;;;;;;;4.53;2.63;;;32.20;36.00;;;;;;5095765;28;20427;-75
2022/06/15 09:32:14;;;;;;;3.67;2.80;;;32.40;35.50;;;;;;5095919;28;20490;-74
2022/06/15 09:34:49;;;;;;;5.97;2.50;;;32.60;35.40;;;;;;5095591;28;20565;-74
2022/06/15 09:37:19;;;;;;;4.53;2.77;;;32.90;35.40;;;;;;5095699;28;20424;-74
2022/06/15 09:39:46;;;;;;;4.30;2.40;;;33.10;35.40;;;;;;5095645;28;20458;-75
2022/06/15 09:42:21;;;;;;;4.27;2.80;;;33.30;35.40;;;;;;5095772;28;20466;-74
2022/06/15 09:44:55;;;;;;;4.77;2.60;;;33.50;33.80;;;;;;5096086;28;20419;-75
2022/06/15 09:47:33;;;;;;;6.23;3.07;;;33.70;33.30;;;;;;5096771;28;20435;-75
2022/06/15 09:50:12;;;;;;;2.87;2.47;;;33.90;33.60;;;;;;5097713;28;20423;-75
2022/06/15 09:52:55;;;;;;;4.23;2.97;;;34.10;32.90;;;;;;5098367;28;20566;-75
2022/06/15 09:55:33;;;;;;;3.90;2.37;;;34.40;32.40;;;;;;5097353;28;20513;-74
2022/06/15 09:58:00;;;;;;;6.53;3.03;;;34.60;31.90;;;;;;5095099;28;20896;-74
2022/06/15 10:00:27;;;;;;;6.03;3.00;;;34.80;30.40;;;;;;5095020;28;20454;-74
2022/06/15 10:02:59;;;;;;;3.93;2.30;;;35.00;30.50;;;;;;5094724;28;20833;-75
2022/06/15 10:05:31;;;;;;;5.87;2.70;;;35.30;30.30;;;;;;5094675;28;20447;-75
2022/06/15 10:08:01;;;;;;;5.00;2.73;;;35.60;30.00;;;;;;5094959;28;20466;-74
2022/06/15 10:10:33;;;;;;;2.90;1.93;;;35.90;30.50;;;;;;5094892;28;20436;-74
2022/06/15 10:13:05;;;;;;;8.23;2.50;;;36.30;29.80;;;;;;5094388;28;20853;-73
2022/06/15 10:15:49;;;;;;;3.60;2.23;;;36.60;29.00;;;;;;5094948;28;20185;-73
2022/06/15 10:18:21;;;;;;;2.53;2.00;;;36.90;28.50;;;;;;5095181;28;20213;-74
2022/06/15 10:21:03;;;;;;;4.47;2.30;;;37.30;28.10;;;;;;5093895;28;20186;-74
2022/06/15 10:23:50;;;;;;;3.10;2.10;;;37.70;27.40;;;;;;5094685;28;20275;-74
2022/06/15 10:26:28;;;;;;;5.95;2.42;;;38.00;27.10;;;;;;5094685;28;20287;-74
2022/06/15 10:28:56;;;;;;;5.28;2.67;;;38.50;26.40;;;;;;5094506;28;20181;-74
2022/06/15 10:31:28;;;;;;;3.38;1.98;;;38.70;25.10;;;;;;5094240;28;20566;-73
2022/06/15 10:33:57;;;;;;;5.20;2.30;;;38.90;25.20;;;;;;5094239;28;20228;-73
2022/06/15 10:36:30;;;;;;;2.80;1.80;;;39.20;25.30;;;;;;5094444;28;20193;-74
2022/06/15 10:39:04;;;;;;;3.08;1.75;;;39.50;24.70;;;;;;5094167;28;20597;-74
2022/06/15 10:41:49;;;;;;;3.70;1.80;;;40.00;24.60;;;;;;5094412;28;20225;-74
2022/06/15 10:44:27;;;;;;;13.93;2.72;;;40.40;23.80;;;;;;5093998;28;20553;-72
2022/06/15 10:46:59;;;;;;;9.15;2.25;;;40.90;23.60;;;;;;5093964;28;20216;-72
2022/06/15 10:49:29;;;;;;;2.70;1.83;;;41.30;22.40;;;;;;5094450;28;20191;-72
2022/06/15 10:51:57;;;;;;;5.43;2.05;;;41.80;22.00;;;;;;5094162;28;20221;-72
2022/06/15 10:54:32;;;;;;;2.53;1.98;;;42.20;21.30;;;;;;5094345;28;20233;-72
2022/06/15 11:02:51;;;;;;;7.90;1.80;;;43.70;19.50;;;;;;5094012;28;20254;-72
2022/06/15 11:05:22;;;;;;;4.72;2.15;;;44.10;19.00;;;;;;5093980;28;20285;-72
2022/06/15 11:07:54;;;;;;;4.10;1.88;;;44.40;19.10;;;;;;5093745;28;20651;-73
2022/06/15 11:10:27;;;;;;;5.10;2.15;;;44.70;19.10;;;;;;5093697;28;20191;-73
2022/06/15 11:12:56;;;;;;;2.90;1.77;;;45.00;18.90;;;;;;5093900;28;20236;-73
2022/06/15 11:18:01;;;;;;;6.47;2.33;;;45.40;18.70;;;;;;5094280;28;20181;-73
2022/06/15 11:18:24;;;;;;;4.63;2.17;;;45.60;18.10;;;;;;5093358;28;20193;-73
2022/06/15 11:20:57;;;;;;;2.97;1.60;;;45.90;17.10;;;;;;5093985;28;20204;-73
2022/06/15 11:23:29;;;;;;;3.22;1.95;;;46.10;17.40;;;;;;5093687;28;20241;-72
2022/06/15 11:26:01;;;;;;;3.33;2.13;;;46.30;17.10;;;;;;5093533;28;20557;-73
2022/06/15 11:28:33;;;;;;;3.50;2.00;;;46.40;16.20;;;;;;5093774;28;20267;-73
2022/06/15 11:31:04;;;;;;;3.85;1.95;;;46.50;15.70;;;;;;5094053;28;20189;-74
2022/06/15 11:33:38;;;;;;;4.85;2.30;;;46.50;15.90;;;;;;5097808;28;20575;-74
2022/06/15 11:36:14;;;;;;;5.95;2.40;;;46.50;15.40;;;;;;5098026;28;20554;-74
2022/06/15 11:38:50;;;;;;;4.85;2.08;;;46.60;16.10;;;;;;5097868;28;20181;-74
2022/06/15 11:41:23;;;;;;;2.97;1.77;;;46.70;15.40;;;;;;5098583;28;20185;-73
2022/06/15 11:43:51;;;;;;;3.88;1.80;;;46.70;15.90;;;;;;5097701;28;20205;-74
2022/06/15 11:46:33;;;;;;;4.03;1.70;;;46.80;16.20;;;;;;5097636;28;20192;-74
2022/06/15 11:49:17;;;;;;;3.63;2.38;;;47.00;16.20;;;;;;5097628;28;20186;-75
2022/06/15 11:51:55;;;;;;;3.13;1.80;;;47.30;16.10;;;;;;5098259;28;20221;-74
2022/06/15 11:54:47;;;;;;;3.53;1.70;;;47.60;15.70;;;;;;5097474;28;20185;-74
2022/06/15 11:57:23;;;;;;;2.78;1.90;;;47.90;15.70;;;;;;5097392;28;20181;-75
2022/06/15 11:59:59;;;;;;;4.07;1.95;;;48.30;15.70;;;;;;5097459;28;20223;-75
2022/06/15 12:02:38;;;;;;;3.55;1.65;;;48.50;14.40;;;;;;5097715;28;20221;-75
2022/06/15 12:05:19;;;;;;;3.20;1.98;;;48.50;14.30;;;;;;5097301;28;20185;-74
2022/06/15 12:07:59;;;;;;;3.63;1.85;;;48.60;14.80;;;;;;5096988;28;20182;-74
2022/06/15 12:10:39;;;;;;;4.65;2.50;;;48.50;14.60;;;;;;5097386;28;20189;-74
2022/06/15 12:13:14;;;;;;;4.25;2.13;;;48.70;15.20;;;;;;5096767;28;20560;-75
2022/06/15 12:15:45;;;;;;;3.92;1.83;;;48.70;14.60;;;;;;5097428;28;20196;-74
2022/06/15 12:18:29;;;;;;;3.40;1.90;;;48.90;14.00;;;;;;5097201;28;20264;-73
2022/06/15 12:21:02;;;;;;;2.75;1.60;;;49.10;14.20;;;;;;5097303;28;20194;-74
2022/06/15 12:23:40;;;;;;;7.10;2.00;;;49.40;14.70;;;;;;5096821;28;20224;-74
2022/06/15 12:26:19;;;;;;;4.65;1.92;;;49.60;13.50;;;;;;5097594;28;20185;-74
2022/06/15 12:28:51;;;;;;;2.50;1.70;;;49.80;13.70;;;;;;5098493;28;20199;-75
2022/06/15 12:31:27;;;;;;;6.50;1.88;;;50.00;13.60;;;;;;5099647;28;20189;-74
2022/06/15 12:33:59;;;;;;;3.05;1.60;;;50.20;13.40;;;;;;5099383;28;20318;-75
2022/06/15 12:36:34;;;;;;;5.10;2.20;;;50.50;13.60;;;;;;5097137;28;20185;-74
2022/06/15 12:39:10;;;;;;;4.15;2.53;;;50.70;12.10;;;;;;5096799;28;20189;-75
2022/06/15 12:44:30;;;;;;;2.15;1.70;;;50.50;12.60;;;;;;5096298;28;20236;-74
2022/06/15 12:46:57;;;;;;;3.25;1.45;;;50.60;13.30;;;;;;5096644;28;20181;-74
2022/06/15 12:49:30;;;;;;;2.33;1.75;;;50.70;12.50;;;;;;5096237;28;20212;-74
2022/06/15 12:52:04;;;;;;;5.43;2.25;;;50.90;12.50;;;;;;5096391;28;20223;-76
2022/06/15 12:54:43;;;;;;;2.85;1.70;;;50.90;12.00;;;;;;5096568;28;20185;-75
2022/06/15 12:57:19;;;;;;;2.22;1.90;;;50.80;12.10;;;;;;5096571;28;20185;-75
2022/06/15 12:59:54;;;;;;;4.40;1.95;;;50.70;11.60;;;;;;5095950;28;20536;-75
2022/06/15 13:02:25;;;;;;;4.35;2.05;;;50.70;12.40;;;;;;5096234;28;20223;-74
2022/06/15 13:05:05;;;;;;;2.90;2.17;;;50.70;12.30;;;;;;5096176;28;20226;-74
2022/06/15 13:07:34;;;;;;;2.45;1.60;;;50.70;12.10;;;;;;5096028;28;20666;-74
2022/06/15 13:10:25;;;;;;;3.13;1.60;;;50.80;11.80;;;;;;5096416;28;20198;-75
2022/06/15 13:12:59;;;;;;;2.63;1.73;;;50.60;11.80;;;;;;5096536;28;20225;-74
2022/06/15 13:15:33;;;;;;;5.35;1.48;;;50.60;12.80;;;;;;5096178;28;20194;-75
2022/06/15 13:18:08;;;;;;;3.70;1.70;;;50.70;12.20;;;;;;5095944;28;20558;-74